createdAt,value
2023-09-23T00:00:48.057Z,13.82
2023-09-23T00:03:16.295Z,13.84
2023-09-23T00:05:45.283Z,13.83
2023-09-23T00:08:12.099Z,13.84
2023-09-23T00:10:39.789Z,13.82
2023-09-23T00:13:07.136Z,13.84
2023-09-23T00:15:36.237Z,13.86
2023-09-23T00:18:03.645Z,13.88
2023-09-23T00:20:32.433Z,13.90
2023-09-23T00:22:59.456Z,13.92
2023-09-23T00:25:26.160Z,13.95
2023-09-23T00:27:55.224Z,13.99
2023-09-23T00:30:22.076Z,14.00
2023-09-23T00:32:50.109Z,13.99
2023-09-23T00:35:16.767Z,13.96
2023-09-23T00:37:45.460Z,13.93
2023-09-23T00:40:18.498Z,13.88
2023-09-23T00:42:46.028Z,13.82
2023-09-23T00:45:16.266Z,13.80
2023-09-23T00:47:43.853Z,13.75
2023-09-23T00:50:21.379Z,13.71
2023-09-23T00:52:53.568Z,13.68
2023-09-23T00:55:21.318Z,13.66
2023-09-23T00:57:48.682Z,13.64
2023-09-23T01:00:15.691Z,13.64
2023-09-23T01:02:42.361Z,13.65
2023-09-23T01:05:09.396Z,13.64
2023-09-23T01:07:39.134Z,13.63
2023-09-23T01:10:07.408Z,13.60
2023-09-23T01:12:33.963Z,13.59
2023-09-23T01:15:01.030Z,13.57
2023-09-23T01:17:27.529Z,13.55
2023-09-23T01:19:54.485Z,13.52
2023-09-23T01:22:24.387Z,13.50
2023-09-23T01:24:50.955Z,13.51
2023-09-23T01:27:19.738Z,13.51
2023-09-23T01:29:53.369Z,13.52
2023-09-23T01:32:27.589Z,13.50
2023-09-23T01:34:54.153Z,13.48
2023-09-23T01:37:21.074Z,13.47
2023-09-23T01:39:49.890Z,13.47
2023-09-23T01:42:16.405Z,13.48
2023-09-23T01:44:45.104Z,13.51
2023-09-23T01:47:12.261Z,13.54
2023-09-23T01:49:39.708Z,13.56
2023-09-23T01:52:06.255Z,13.55
2023-09-23T01:54:33.581Z,13.54
2023-09-23T01:57:04.152Z,13.52
2023-09-23T01:59:30.812Z,13.49
2023-09-23T02:01:58.028Z,13.44
2023-09-23T02:04:24.602Z,13.38
2023-09-23T02:06:52.926Z,13.38
2023-09-23T02:09:19.460Z,13.39
2023-09-23T02:11:45.983Z,13.42
2023-09-23T02:14:13.990Z,13.47
2023-09-23T02:16:40.640Z,13.49
2023-09-23T02:19:07.525Z,13.50
2023-09-23T02:21:34.396Z,13.53
2023-09-23T02:24:00.921Z,13.56
2023-09-23T02:26:28.500Z,13.55
2023-09-23T02:28:55.174Z,13.53
2023-09-23T02:31:23.082Z,13.51
2023-09-23T02:33:49.646Z,13.52
2023-09-23T02:36:16.485Z,13.54
2023-09-23T02:38:46.080Z,13.56
2023-09-23T02:41:13.761Z,13.58
2023-09-23T02:43:41.385Z,13.60
2023-09-23T02:46:08.285Z,13.61
2023-09-23T02:48:36.229Z,13.59
2023-09-23T02:51:03.012Z,13.60
2023-09-23T02:53:31.708Z,13.60
2023-09-23T02:56:04.970Z,13.59
2023-09-23T02:58:31.476Z,13.60
2023-09-23T03:01:02.493Z,13.59
2023-09-23T03:03:29.242Z,13.53
2023-09-23T03:05:58.624Z,13.49
2023-09-23T03:08:25.536Z,13.49
2023-09-23T03:10:53.582Z,13.49
2023-09-23T03:13:20.204Z,13.50
2023-09-23T03:16:06.630Z,13.52
2023-09-23T03:18:37.581Z,13.54
2023-09-23T03:21:10.269Z,13.50
2023-09-23T03:23:38.284Z,13.45
2023-09-23T03:26:05.668Z,13.41
2023-09-23T03:28:32.269Z,13.39
2023-09-23T03:31:00.097Z,13.37
2023-09-23T03:33:26.766Z,13.32
2023-09-23T03:35:53.466Z,13.29
2023-09-23T03:38:21.821Z,13.27
2023-09-23T03:40:52.388Z,13.25
2023-09-23T03:43:20.307Z,13.26
2023-09-23T03:45:48.604Z,13.30
2023-09-23T03:48:15.895Z,13.32
2023-09-23T03:50:42.530Z,13.35
2023-09-23T03:53:10.403Z,13.36
2023-09-23T03:55:39.566Z,13.35
2023-09-23T03:58:06.262Z,13.39
2023-09-23T04:00:34.992Z,13.39
2023-09-23T04:03:01.825Z,13.41
2023-09-23T04:05:29.490Z,13.41
2023-09-23T04:07:56.102Z,13.38
2023-09-23T04:10:28.692Z,13.38
2023-09-23T04:12:57.009Z,13.40
2023-09-23T04:15:23.729Z,13.44
2023-09-23T04:17:50.678Z,13.43
2023-09-23T04:20:17.354Z,13.42
2023-09-23T04:22:44.107Z,13.42
2023-09-23T04:25:11.908Z,13.42
2023-09-23T04:27:38.754Z,13.43
2023-09-23T04:30:10.347Z,13.44
2023-09-23T04:32:37.126Z,13.43
2023-09-23T04:35:03.960Z,13.46
2023-09-23T04:37:30.563Z,13.51
2023-09-23T04:39:58.542Z,13.55
2023-09-23T04:42:25.046Z,13.55
2023-09-23T04:44:51.911Z,13.57
2023-09-23T04:47:21.157Z,13.61
2023-09-23T04:49:47.789Z,13.61
2023-09-23T04:52:16.846Z,13.60
2023-09-23T04:54:44.905Z,13.61
2023-09-23T04:57:11.423Z,13.57
2023-09-23T04:59:38.067Z,13.54
2023-09-23T05:02:04.794Z,13.52
2023-09-23T05:04:32.852Z,13.47
2023-09-23T05:07:01.838Z,13.43
2023-09-23T05:09:28.967Z,13.40
2023-09-23T05:11:56.175Z,13.37
2023-09-23T05:14:23.184Z,13.38
2023-09-23T05:16:51.999Z,13.39
2023-09-23T05:19:24.126Z,13.42
2023-09-23T05:21:52.063Z,13.46
2023-09-23T05:24:18.898Z,13.49
2023-09-23T05:26:45.379Z,13.52
2023-09-23T05:29:11.918Z,13.57
2023-09-23T05:31:38.433Z,13.57
2023-09-23T05:34:05.601Z,13.56
2023-09-23T05:36:32.417Z,13.58
2023-09-23T05:39:00.470Z,13.57
2023-09-23T05:41:27.118Z,13.59
2023-09-23T05:43:54.725Z,13.59
2023-09-23T05:46:21.424Z,13.59
2023-09-23T05:48:49.255Z,13.61
2023-09-23T05:51:17.075Z,13.60
2023-09-23T05:53:43.741Z,13.60
2023-09-23T05:56:11.922Z,13.60
2023-09-23T05:58:38.596Z,13.55
2023-09-23T06:01:05.267Z,13.53
2023-09-23T06:03:32.433Z,13.52
2023-09-23T06:05:59.204Z,13.51
2023-09-23T06:08:26.897Z,13.50
2023-09-23T06:10:53.577Z,13.51
2023-09-23T06:13:21.607Z,13.48
2023-09-23T06:15:48.185Z,13.44
2023-09-23T06:18:14.976Z,13.43
2023-09-23T06:20:41.690Z,13.39
2023-09-23T06:23:08.283Z,13.35
2023-09-23T06:25:34.867Z,13.34
2023-09-23T06:28:01.363Z,13.35
2023-09-23T06:30:29.384Z,13.37
2023-09-23T06:32:55.898Z,13.42
2023-09-23T06:35:22.508Z,13.45
2023-09-23T06:37:49.283Z,13.48
2023-09-23T06:40:15.985Z,13.52
2023-09-23T06:42:42.600Z,13.54
2023-09-23T06:45:11.056Z,13.56
2023-09-23T06:47:39.171Z,13.57
2023-09-23T06:50:06.260Z,13.60
2023-09-23T06:52:32.936Z,13.63
2023-09-23T06:55:00.355Z,13.61
2023-09-23T06:57:27.245Z,13.61
2023-09-23T06:59:53.792Z,13.63
2023-09-23T07:02:21.290Z,13.63
2023-09-23T07:04:50.145Z,13.63
2023-09-23T07:07:17.073Z,13.64
2023-09-23T07:09:46.723Z,13.70
2023-09-23T07:12:16.030Z,13.72
2023-09-23T07:14:42.719Z,13.77
2023-09-23T07:17:09.483Z,13.74
2023-09-23T07:19:36.306Z,13.77
2023-09-23T07:22:04.586Z,13.80
2023-09-23T07:24:34.847Z,13.82
2023-09-23T07:27:01.450Z,13.84
2023-09-23T07:29:28.274Z,13.87
2023-09-23T07:31:56.697Z,13.89
2023-09-23T07:34:23.662Z,13.93
2023-09-23T07:36:50.222Z,13.98
2023-09-23T07:39:18.459Z,14.03
2023-09-23T07:41:45.066Z,14.07
2023-09-23T07:44:12.478Z,14.10
2023-09-23T07:46:39.228Z,14.11
2023-09-23T07:49:06.216Z,14.03
2023-09-23T07:51:32.783Z,13.95
2023-09-23T07:53:59.322Z,13.91
2023-09-23T07:56:27.407Z,13.83
2023-09-23T07:58:54.135Z,13.83
2023-09-23T08:01:20.902Z,13.81
2023-09-23T08:03:47.640Z,13.79
2023-09-23T08:06:14.633Z,13.76
2023-09-23T08:08:41.197Z,13.80
2023-09-23T08:11:07.734Z,13.83
2023-09-23T08:13:35.668Z,13.83
2023-09-23T08:16:03.916Z,13.83
2023-09-23T08:18:30.529Z,13.82
2023-09-23T08:20:57.766Z,13.76
2023-09-23T08:23:24.445Z,13.71
2023-09-23T08:25:51.704Z,13.71
2023-09-23T08:28:19.099Z,13.73
2023-09-23T08:30:49.149Z,13.75
2023-09-23T08:33:17.026Z,13.79
2023-09-23T08:35:46.587Z,13.83
2023-09-23T08:38:14.782Z,13.90
2023-09-23T08:40:43.275Z,13.88
2023-09-23T08:43:09.824Z,13.90
2023-09-23T08:45:40.943Z,13.93
2023-09-23T08:48:09.045Z,13.94
2023-09-23T08:50:36.285Z,13.94
2023-09-23T08:53:05.428Z,13.93
2023-09-23T08:55:32.720Z,13.94
2023-09-23T08:58:03.303Z,13.96
2023-09-23T09:00:31.026Z,14.05
2023-09-23T09:02:57.687Z,14.14
2023-09-23T09:05:25.722Z,14.20
2023-09-23T09:07:53.327Z,14.22
2023-09-23T09:10:20.345Z,14.28
2023-09-23T09:12:48.859Z,14.32
2023-09-23T09:15:18.248Z,14.34
2023-09-23T09:17:46.693Z,14.43
2023-09-23T09:20:13.639Z,14.47
2023-09-23T09:22:42.223Z,14.50
2023-09-23T09:25:12.586Z,14.43
2023-09-23T09:27:39.453Z,14.44
2023-09-23T09:30:14.436Z,14.48
2023-09-23T09:32:42.335Z,14.57
2023-09-23T09:35:13.065Z,14.67
2023-09-23T09:37:43.643Z,14.77
2023-09-23T09:40:12.447Z,14.85
2023-09-23T09:42:40.942Z,14.91
2023-09-23T09:45:10.273Z,14.95
2023-09-23T09:47:39.617Z,15.01
2023-09-23T09:50:06.988Z,15.09
2023-09-23T09:52:35.339Z,15.17
2023-09-23T09:55:04.486Z,15.18
2023-09-23T09:57:31.131Z,15.15
2023-09-23T09:59:59.218Z,15.13
2023-09-23T10:02:25.873Z,15.15
2023-09-23T10:04:54.798Z,15.24
2023-09-23T10:07:24.400Z,15.26
2023-09-23T10:09:56.957Z,15.27
2023-09-23T10:12:28.084Z,15.28
2023-09-23T10:14:55.785Z,15.24
2023-09-23T10:17:28.114Z,15.29
2023-09-23T10:19:54.783Z,15.40
2023-09-23T10:22:22.455Z,15.48
2023-09-23T10:24:59.727Z,15.45
2023-09-23T10:27:26.914Z,15.42
2023-09-23T10:29:59.355Z,15.44
2023-09-23T10:32:26.290Z,15.49
2023-09-23T10:34:56.759Z,15.48
2023-09-23T10:37:27.022Z,15.54
2023-09-23T10:39:53.539Z,15.64
2023-09-23T10:42:20.481Z,15.66
2023-09-23T10:44:47.015Z,15.68
2023-09-23T10:47:15.466Z,15.73
2023-09-23T10:49:42.034Z,15.73
2023-09-23T10:52:08.959Z,15.76
2023-09-23T10:54:37.430Z,15.80
2023-09-23T10:57:04.165Z,15.80
2023-09-23T10:59:30.806Z,15.77
2023-09-23T11:01:57.480Z,15.79
2023-09-23T11:04:27.596Z,15.81
2023-09-23T11:06:54.194Z,15.85
2023-09-23T11:09:22.318Z,15.88
2023-09-23T11:11:48.950Z,15.93
2023-09-23T11:14:15.935Z,15.93
2023-09-23T11:16:43.403Z,15.90
2023-09-23T11:19:09.965Z,15.89
2023-09-23T11:21:43.360Z,15.88
2023-09-23T11:24:10.271Z,15.91
2023-09-23T11:26:39.049Z,15.94
2023-09-23T11:29:05.667Z,16.03
2023-09-23T11:31:32.645Z,16.06
2023-09-23T11:33:59.341Z,16.07
2023-09-23T11:36:26.071Z,16.14
2023-09-23T11:38:54.067Z,16.18
2023-09-23T11:41:20.762Z,16.13
2023-09-23T11:43:51.121Z,16.01
2023-09-23T11:46:21.020Z,16.04
2023-09-23T11:48:49.487Z,16.02
2023-09-23T11:51:17.480Z,16.01
2023-09-23T11:53:44.777Z,15.99
2023-09-23T11:56:13.200Z,16.01
2023-09-23T11:58:41.409Z,15.99
2023-09-23T12:01:09.859Z,15.98
2023-09-23T12:03:36.517Z,16.01
2023-09-23T12:06:03.910Z,15.97
2023-09-23T12:08:30.603Z,15.96
2023-09-23T12:10:57.409Z,15.99
2023-09-23T12:13:25.788Z,16.05
2023-09-23T12:15:53.708Z,16.08
2023-09-23T12:18:20.341Z,16.17
2023-09-23T12:20:51.874Z,16.22
2023-09-23T12:23:19.209Z,16.27
2023-09-23T12:25:45.795Z,16.35
2023-09-23T12:28:12.286Z,16.42
2023-09-23T12:30:40.492Z,16.50
2023-09-23T12:33:07.311Z,16.57
2023-09-23T12:35:34.076Z,16.67
2023-09-23T12:38:01.829Z,16.79
2023-09-23T12:40:28.860Z,16.88
2023-09-23T12:42:55.391Z,17.05
2023-09-23T12:45:23.498Z,17.21
2023-09-23T12:47:57.313Z,17.38
2023-09-23T12:50:24.864Z,17.49
2023-09-23T12:52:51.804Z,17.60
2023-09-23T12:55:18.999Z,17.64
2023-09-23T12:57:45.830Z,17.59
2023-09-23T13:00:14.086Z,17.50
2023-09-23T13:02:40.776Z,17.43
2023-09-23T13:05:10.177Z,17.46
2023-09-23T13:07:37.458Z,17.50
2023-09-23T13:10:05.105Z,17.51
2023-09-23T13:12:31.841Z,17.56
2023-09-23T13:14:58.387Z,17.62
2023-09-23T13:17:25.060Z,17.65
2023-09-23T13:19:51.644Z,17.72
2023-09-23T13:22:20.210Z,17.82
2023-09-23T13:24:47.178Z,17.84
2023-09-23T13:27:13.972Z,17.76
2023-09-23T13:29:40.564Z,17.72
2023-09-23T13:32:07.836Z,17.70
2023-09-23T13:34:34.367Z,17.71
2023-09-23T13:37:00.925Z,17.70
2023-09-23T13:39:28.869Z,17.77
2023-09-23T13:41:56.171Z,17.76
2023-09-23T13:44:25.727Z,17.71
2023-09-23T13:46:52.715Z,17.68
2023-09-23T13:49:19.340Z,17.56
2023-09-23T13:51:45.859Z,17.49
2023-09-23T13:54:12.372Z,17.50
2023-09-23T13:56:40.320Z,17.51
2023-09-23T13:59:07.150Z,17.53
2023-09-23T14:01:34.805Z,17.60
2023-09-23T14:04:01.529Z,17.60
2023-09-23T14:06:28.138Z,17.59
2023-09-23T14:08:55.363Z,17.60
2023-09-23T14:11:22.189Z,17.61
2023-09-23T14:13:50.105Z,17.64
2023-09-23T14:16:16.673Z,17.63
2023-09-23T14:18:43.376Z,17.61
2023-09-23T14:21:09.909Z,17.70
2023-09-23T14:23:36.992Z,17.78
2023-09-23T14:26:03.935Z,17.85
2023-09-23T14:28:30.690Z,17.83
2023-09-23T14:30:58.691Z,17.76
2023-09-23T14:33:25.372Z,17.71
2023-09-23T14:35:52.052Z,17.66
2023-09-23T14:38:18.987Z,17.64
2023-09-23T14:40:45.848Z,17.66
2023-09-23T14:43:12.606Z,17.65
2023-09-23T14:45:39.793Z,17.70
2023-09-23T14:48:08.037Z,17.72
2023-09-23T14:50:38.271Z,17.75
2023-09-23T14:53:05.021Z,17.80
2023-09-23T14:55:32.275Z,17.81
2023-09-23T14:57:58.958Z,17.79
2023-09-23T15:00:25.620Z,17.83
2023-09-23T15:02:52.209Z,17.85
2023-09-23T15:05:24.535Z,17.88
2023-09-23T15:07:52.697Z,17.88
2023-09-23T15:10:20.920Z,17.80
2023-09-23T15:12:48.633Z,17.73
2023-09-23T15:15:18.160Z,17.65
2023-09-23T15:17:44.822Z,17.60
2023-09-23T15:20:12.125Z,17.49
2023-09-23T15:22:40.166Z,17.44
2023-09-23T15:25:10.853Z,17.42
2023-09-23T15:27:37.716Z,17.42
2023-09-23T15:30:09.327Z,17.42
2023-09-23T15:32:36.292Z,17.39
2023-09-23T15:35:05.494Z,17.38
2023-09-23T15:37:32.334Z,17.36
2023-09-23T15:40:00.281Z,17.38
2023-09-23T15:42:27.038Z,17.28
2023-09-23T15:44:53.991Z,17.22
2023-09-23T15:47:21.604Z,17.20
2023-09-23T15:49:48.638Z,17.17
2023-09-23T15:52:18.598Z,17.15
2023-09-23T15:54:45.096Z,17.08
2023-09-23T15:57:13.036Z,17.07
2023-09-23T15:59:39.616Z,17.08
2023-09-23T16:02:07.037Z,17.09
2023-09-23T16:04:33.714Z,17.11
2023-09-23T16:07:00.553Z,17.08
2023-09-23T16:09:27.093Z,17.07
2023-09-23T16:11:54.193Z,17.10
2023-09-23T16:14:23.093Z,17.09
2023-09-23T16:16:50.262Z,17.06
2023-09-23T16:19:16.846Z,17.04
2023-09-23T16:21:44.324Z,17.01
2023-09-23T16:24:11.296Z,16.97
2023-09-23T16:26:38.759Z,16.93
2023-09-23T16:29:05.297Z,16.90
2023-09-23T16:31:34.216Z,16.83
2023-09-23T16:34:00.822Z,16.77
2023-09-23T16:36:27.532Z,16.75
2023-09-23T16:38:54.148Z,16.73
2023-09-23T16:41:21.004Z,16.71
2023-09-23T16:43:49.467Z,16.67
2023-09-23T16:46:16.635Z,16.64
2023-09-23T16:48:44.641Z,16.60
2023-09-23T16:51:11.218Z,16.59
2023-09-23T16:53:37.945Z,16.55
2023-09-23T16:56:07.924Z,16.54
2023-09-23T16:58:34.482Z,16.49
2023-09-23T17:01:01.247Z,16.42
2023-09-23T17:03:28.885Z,16.36
2023-09-23T17:05:56.822Z,16.32
2023-09-23T17:08:23.738Z,16.24
2023-09-23T17:10:50.683Z,16.18
2023-09-23T17:13:19.098Z,16.15
2023-09-23T17:15:47.738Z,16.16
2023-09-23T17:18:16.781Z,16.14
2023-09-23T17:20:44.036Z,16.12
2023-09-23T17:23:12.218Z,16.09
2023-09-23T17:25:38.869Z,16.08
2023-09-23T17:28:06.852Z,16.05
2023-09-23T17:30:33.496Z,16.02
2023-09-23T17:33:00.142Z,16.00
2023-09-23T17:35:26.963Z,16.00
2023-09-23T17:37:54.717Z,15.98
2023-09-23T17:40:23.314Z,15.97
2023-09-23T17:42:50.007Z,15.95
2023-09-23T17:45:16.597Z,15.93
2023-09-23T17:47:43.480Z,15.89
2023-09-23T17:50:10.202Z,15.88
2023-09-23T17:52:36.769Z,15.90
2023-09-23T17:55:04.082Z,15.89
2023-09-23T17:57:32.361Z,15.89
2023-09-23T17:59:59.017Z,15.84
2023-09-23T18:02:25.688Z,15.83
2023-09-23T18:04:52.626Z,15.84
2023-09-23T18:07:19.146Z,15.85
2023-09-23T18:09:45.762Z,15.83
2023-09-23T18:12:13.927Z,15.83
2023-09-23T18:14:42.126Z,15.82
2023-09-23T18:17:08.666Z,15.80
2023-09-23T18:19:37.791Z,15.75
2023-09-23T18:22:04.743Z,15.69
2023-09-23T18:24:32.328Z,15.68
2023-09-23T18:26:59.017Z,15.69
2023-09-23T18:29:26.374Z,15.72
2023-09-23T18:31:54.616Z,15.75
2023-09-23T18:34:21.814Z,15.73
2023-09-23T18:36:48.667Z,15.70
2023-09-23T18:39:15.202Z,15.67
2023-09-23T18:41:43.164Z,15.66
2023-09-23T18:44:09.866Z,15.65
2023-09-23T18:46:36.387Z,15.60
2023-09-23T18:49:04.552Z,15.49
2023-09-23T18:51:31.234Z,15.37
2023-09-23T18:53:58.126Z,15.27
2023-09-23T18:56:24.766Z,15.16
2023-09-23T18:58:51.306Z,15.09
2023-09-23T19:01:17.883Z,15.03
2023-09-23T19:03:44.814Z,14.97
2023-09-23T19:06:12.880Z,14.91
2023-09-23T19:08:39.515Z,14.86
2023-09-23T19:11:07.782Z,14.79
2023-09-23T19:13:35.596Z,14.74
2023-09-23T19:16:02.526Z,14.69
2023-09-23T19:18:29.200Z,14.68
2023-09-23T19:20:56.171Z,14.71
2023-09-23T19:23:25.685Z,14.76
2023-09-23T19:25:54.016Z,14.75
2023-09-23T19:28:21.120Z,14.78
2023-09-23T19:30:48.703Z,14.78
2023-09-23T19:33:15.370Z,14.81
2023-09-23T19:35:42.093Z,14.83
2023-09-23T19:38:08.916Z,14.85
2023-09-23T19:40:39.841Z,14.87
2023-09-23T19:43:06.400Z,14.88
2023-09-23T19:45:33.043Z,14.84
2023-09-23T19:47:59.824Z,14.79
2023-09-23T19:50:26.450Z,14.68
2023-09-23T19:52:53.437Z,14.66
2023-09-23T19:55:20.559Z,14.68
2023-09-23T19:57:48.496Z,14.66
2023-09-23T20:00:15.346Z,14.65
2023-09-23T20:02:41.992Z,14.66
2023-09-23T20:05:09.104Z,14.66
2023-09-23T20:07:36.164Z,14.62
2023-09-23T20:10:06.618Z,14.63
2023-09-23T20:12:33.294Z,14.63
2023-09-23T20:15:06.723Z,14.65
2023-09-23T20:17:33.434Z,14.68
2023-09-23T20:20:00.403Z,14.70
2023-09-23T20:22:27.048Z,14.70
2023-09-23T20:24:53.654Z,14.69
2023-09-23T20:27:20.264Z,14.70
2023-09-23T20:30:03.774Z,14.67
2023-09-23T20:32:34.964Z,14.61
2023-09-23T20:35:01.910Z,14.57
2023-09-23T20:37:28.648Z,14.46
2023-09-23T20:39:55.210Z,14.34
2023-09-23T20:42:21.680Z,14.26
2023-09-23T20:44:48.215Z,14.23
2023-09-23T20:47:14.862Z,14.23
2023-09-23T20:49:43.041Z,14.23
2023-09-23T20:52:10.294Z,14.17
2023-09-23T20:54:36.945Z,14.11
2023-09-23T20:57:05.611Z,14.07
2023-09-23T20:59:32.155Z,14.07
2023-09-23T21:01:58.757Z,14.10
2023-09-23T21:04:25.461Z,14.14
2023-09-23T21:06:53.417Z,14.19
2023-09-23T21:09:19.913Z,14.23
2023-09-23T21:11:46.965Z,14.24
2023-09-23T21:14:13.581Z,14.27
2023-09-23T21:16:40.136Z,14.29
2023-09-23T21:19:06.634Z,14.32
2023-09-23T21:21:33.584Z,14.36
2023-09-23T21:24:02.415Z,14.39
2023-09-23T21:26:29.056Z,14.41
2023-09-23T21:28:55.583Z,14.39
2023-09-23T21:31:22.133Z,14.32
2023-09-23T21:33:49.512Z,14.22
2023-09-23T21:36:16.316Z,14.15
2023-09-23T21:38:42.919Z,14.07
2023-09-23T21:41:10.890Z,13.99
2023-09-23T21:43:37.393Z,13.94
2023-09-23T21:46:07.444Z,13.96
2023-09-23T21:48:34.169Z,13.96
2023-09-23T21:51:01.817Z,13.94
2023-09-23T21:53:28.891Z,13.93
2023-09-23T21:55:57.030Z,13.92
2023-09-23T21:58:24.935Z,13.95
2023-09-23T22:00:51.970Z,13.98
2023-09-23T22:03:18.649Z,14.02
2023-09-23T22:05:45.462Z,14.07
2023-09-23T22:08:11.954Z,14.12
2023-09-23T22:10:44.066Z,14.13
2023-09-23T22:13:10.614Z,14.16
2023-09-23T22:15:38.511Z,14.18
2023-09-23T22:18:09.346Z,14.18
2023-09-23T22:20:36.210Z,14.16
2023-09-23T22:23:02.815Z,14.11
2023-09-23T22:25:33.373Z,14.07
2023-09-23T22:28:00.111Z,14.02
2023-09-23T22:30:27.171Z,14.03
2023-09-23T22:32:56.786Z,14.00
2023-09-23T22:35:24.662Z,13.97
2023-09-23T22:37:51.823Z,13.98
2023-09-23T22:40:18.602Z,13.97
2023-09-23T22:42:45.263Z,13.94
2023-09-23T22:45:23.576Z,13.91
2023-09-23T22:48:00.432Z,13.87
2023-09-23T22:50:27.567Z,13.80
2023-09-23T22:52:55.370Z,13.76
2023-09-23T22:55:24.006Z,13.71
2023-09-23T22:57:52.174Z,13.70
2023-09-23T23:00:22.352Z,13.66
2023-09-23T23:02:49.301Z,13.63
2023-09-23T23:05:17.438Z,13.63
2023-09-23T23:07:47.950Z,13.61
2023-09-23T23:10:15.992Z,13.58
2023-09-23T23:12:43.864Z,13.57
2023-09-23T23:15:11.888Z,13.52
2023-09-23T23:17:39.194Z,13.47
2023-09-23T23:20:07.328Z,13.48
2023-09-23T23:22:35.334Z,13.51
2023-09-23T23:25:03.309Z,13.55
2023-09-23T23:27:30.023Z,13.57
2023-09-23T23:29:57.214Z,13.61
2023-09-23T23:32:23.777Z,13.63
2023-09-23T23:34:50.778Z,13.64
2023-09-23T23:37:17.321Z,13.66
2023-09-23T23:39:45.454Z,13.68
2023-09-23T23:42:12.076Z,13.71
2023-09-23T23:44:38.839Z,13.71
2023-09-23T23:47:07.826Z,13.73
2023-09-23T23:49:34.536Z,13.73
2023-09-23T23:52:01.112Z,13.75
2023-09-23T23:54:29.484Z,13.78
2023-09-23T23:57:00.245Z,13.78
2023-09-23T23:59:27.382Z,13.78
